sensor_id;sensor_type;location;lat;lon;timestamp;pressure;altitude;pressure_sealevel;temperature;humidity
21828;BME280;11076;47.942;11.804;2022-07-21T00:03:01;94660.00;;;22.20;66.83
21828;BME280;11076;47.942;11.804;2022-07-21T00:08:04;94670.38;;;22.18;66.92
21828;BME280;11076;47.942;11.804;2022-07-21T00:13:07;94662.81;;;22.10;67.55
21828;BME280;11076;47.942;11.804;2022-07-21T00:18:10;94665.94;;;21.93;67.95
21828;BME280;11076;47.942;11.804;2022-07-21T00:23:12;94666.25;;;21.86;68.77
21828;BME280;11076;47.942;11.804;2022-07-21T00:28:15;94673.59;;;21.85;68.77
21828;BME280;11076;47.942;11.804;2022-07-21T00:33:17;94679.94;;;21.76;69.25
21828;BME280;11076;47.942;11.804;2022-07-21T00:38:19;94678.09;;;21.66;69.89
21828;BME280;11076;47.942;11.804;2022-07-21T00:43:22;94681.66;;;21.56;70.30
21828;BME280;11076;47.942;11.804;2022-07-21T00:48:24;94688.81;;;21.47;70.67
21828;BME280;11076;47.942;11.804;2022-07-21T00:53:27;94688.00;;;21.36;71.05
21828;BME280;11076;47.942;11.804;2022-07-21T00:58:29;94680.69;;;21.32;71.74
21828;BME280;11076;47.942;11.804;2022-07-21T01:03:32;94677.97;;;21.37;71.67
21828;BME280;11076;47.942;11.804;2022-07-21T01:08:34;94680.69;;;21.37;71.84
21828;BME280;11076;47.942;11.804;2022-07-21T01:13:37;94673.59;;;21.36;72.08
21828;BME280;11076;47.942;11.804;2022-07-21T01:18:43;94684.47;;;21.36;72.37
21828;BME280;11076;47.942;11.804;2022-07-21T01:23:46;94684.22;;;21.32;72.25
21828;BME280;11076;47.942;11.804;2022-07-21T01:28:48;94689.66;;;21.32;72.22
21828;BME280;11076;47.942;11.804;2022-07-21T01:33:51;94682.06;;;21.29;72.42
21828;BME280;11076;47.942;11.804;2022-07-21T01:38:53;94674.78;;;21.14;73.57
21828;BME280;11076;47.942;11.804;2022-07-21T01:44:14;94682.44;;;20.97;74.48
21828;BME280;11076;47.942;11.804;2022-07-21T01:49:19;94687.69;;;20.73;75.21
21828;BME280;11076;47.942;11.804;2022-07-21T01:54:22;94680.09;;;20.54;75.54
21828;BME280;11076;47.942;11.804;2022-07-21T01:59:25;94687.72;;;20.42;75.68
21828;BME280;11076;47.942;11.804;2022-07-21T02:04:29;94674.72;;;20.23;76.49
21828;BME280;11076;47.942;11.804;2022-07-21T02:09:31;94683.09;;;20.06;76.74
21828;BME280;11076;47.942;11.804;2022-07-21T02:14:34;94675.50;;;19.83;77.97
21828;BME280;11076;47.942;11.804;2022-07-21T02:19:36;94679.78;;;19.68;78.96
21828;BME280;11076;47.942;11.804;2022-07-21T02:24:39;94679.22;;;19.61;80.57
21828;BME280;11076;47.942;11.804;2022-07-21T02:29:43;94680.31;;;19.65;79.75
21828;BME280;11076;47.942;11.804;2022-07-21T02:34:45;94684.66;;;19.66;79.61
21828;BME280;11076;47.942;11.804;2022-07-21T02:39:48;94691.75;;;19.73;79.38
21828;BME280;11076;47.942;11.804;2022-07-21T02:44:50;94696.09;;;19.79;79.21
21828;BME280;11076;47.942;11.804;2022-07-21T02:49:53;94691.25;;;19.86;78.82
21828;BME280;11076;47.942;11.804;2022-07-21T02:54:55;94698.84;;;19.84;78.84
21828;BME280;11076;47.942;11.804;2022-07-21T02:59:58;94697.19;;;19.83;78.98
21828;BME280;11076;47.942;11.804;2022-07-21T03:05:00;94689.06;;;19.78;79.44
21828;BME280;11076;47.942;11.804;2022-07-21T03:10:03;94693.88;;;19.71;79.76
21828;BME280;11076;47.942;11.804;2022-07-21T03:15:06;94710.13;;;19.65;79.88
21828;BME280;11076;47.942;11.804;2022-07-21T03:20:09;94707.94;;;19.57;79.80
21828;BME280;11076;47.942;11.804;2022-07-21T03:25:12;94706.31;;;19.51;80.36
21828;BME280;11076;47.942;11.804;2022-07-21T03:30:15;94706.03;;;19.47;80.54
21828;BME280;11076;47.942;11.804;2022-07-21T03:35:18;94708.44;;;19.39;80.88
21828;BME280;11076;47.942;11.804;2022-07-21T03:40:22;94717.69;;;19.38;81.12
21828;BME280;11076;47.942;11.804;2022-07-21T03:45:27;94723.66;;;19.45;80.86
21828;BME280;11076;47.942;11.804;2022-07-21T03:50:33;94725.84;;;19.53;80.85
21828;BME280;11076;47.942;11.804;2022-07-21T03:55:36;94728.91;;;19.77;80.31
21828;BME280;11076;47.942;11.804;2022-07-21T04:00:41;94731.69;;;20.08;79.75
21828;BME280;11076;47.942;11.804;2022-07-21T04:05:44;94733.31;;;20.40;79.03
21828;BME280;11076;47.942;11.804;2022-07-21T04:10:47;94732.25;;;20.66;78.44
21828;BME280;11076;47.942;11.804;2022-07-21T04:15:49;94740.09;;;20.83;78.07
21828;BME280;11076;47.942;11.804;2022-07-21T04:20:52;94727.59;;;20.88;78.28
21828;BME280;11076;47.942;11.804;2022-07-21T04:25:54;94736.22;;;21.10;77.89
21828;BME280;11076;47.942;11.804;2022-07-21T04:30:57;94731.88;;;21.14;78.29
21828;BME280;11076;47.942;11.804;2022-07-21T04:35:59;94739.47;;;21.12;78.34
21828;BME280;11076;47.942;11.804;2022-07-21T04:41:02;94738.97;;;21.05;78.82
21828;BME280;11076;47.942;11.804;2022-07-21T04:46:04;94753.41;;;20.90;79.44
21828;BME280;11076;47.942;11.804;2022-07-21T04:51:08;94761.31;;;20.71;79.87
21828;BME280;11076;47.942;11.804;2022-07-21T04:56:11;94757.47;;;20.57;80.69
21828;BME280;11076;47.942;11.804;2022-07-21T05:01:14;94761.31;;;20.61;81.11
21828;BME280;11076;47.942;11.804;2022-07-21T05:06:16;94761.31;;;20.66;81.47
21828;BME280;11076;47.942;11.804;2022-07-21T05:11:20;94771.59;;;20.84;81.16
21828;BME280;11076;47.942;11.804;2022-07-21T05:16:22;94770.50;;;21.11;80.55
21828;BME280;11076;47.942;11.804;2022-07-21T05:21:25;94780.53;;;21.11;80.56
21828;BME280;11076;47.942;11.804;2022-07-21T05:26:27;94790.28;;;21.17;80.08
21828;BME280;11076;47.942;11.804;2022-07-21T05:31:30;94781.56;;;21.45;79.56
21828;BME280;11076;47.942;11.804;2022-07-21T05:36:32;94789.66;;;21.61;79.18
21828;BME280;11076;47.942;11.804;2022-07-21T05:41:35;94792.63;;;21.64;78.83
21828;BME280;11076;47.942;11.804;2022-07-21T05:46:37;94791.22;;;21.72;78.47
21828;BME280;11076;47.942;11.804;2022-07-21T05:51:40;94793.72;;;21.63;78.45
21828;BME280;11076;47.942;11.804;2022-07-21T05:56:42;94796.66;;;21.72;78.45
21828;BME280;11076;47.942;11.804;2022-07-21T06:01:45;94801.84;;;21.79;78.58
21828;BME280;11076;47.942;11.804;2022-07-21T06:06:47;94802.78;;;22.03;77.95
21828;BME280;11076;47.942;11.804;2022-07-21T06:11:50;94802.69;;;22.24;77.42
21828;BME280;11076;47.942;11.804;2022-07-21T06:16:53;94808.34;;;22.72;75.77
21828;BME280;11076;47.942;11.804;2022-07-21T06:21:55;94808.91;;;22.69;75.05
21828;BME280;11076;47.942;11.804;2022-07-21T06:26:57;94811.34;;;23.05;73.84
21828;BME280;11076;47.942;11.804;2022-07-21T06:32:04;94817.59;;;23.06;73.54
21828;BME280;11076;47.942;11.804;2022-07-21T06:37:07;94817.06;;;22.74;74.39
21828;BME280;11076;47.942;11.804;2022-07-21T06:42:09;94832.00;;;22.42;76.29
21828;BME280;11076;47.942;11.804;2022-07-21T06:47:12;94834.19;;;22.40;76.83
21828;BME280;11076;47.942;11.804;2022-07-21T06:52:14;94833.41;;;22.35;77.50
21828;BME280;11076;47.942;11.804;2022-07-21T06:57:17;94841.75;;;22.49;76.92
21828;BME280;11076;47.942;11.804;2022-07-21T07:02:19;94844.84;;;22.71;76.32
21828;BME280;11076;47.942;11.804;2022-07-21T07:07:22;94844.06;;;23.05;75.40
21828;BME280;11076;47.942;11.804;2022-07-21T07:12:25;94846.84;;;23.29;73.98
21828;BME280;11076;47.942;11.804;2022-07-21T07:17:48;94854.75;;;23.31;71.58
21828;BME280;11076;47.942;11.804;2022-07-21T07:22:50;94851.06;;;23.16;72.68
21828;BME280;11076;47.942;11.804;2022-07-21T07:27:53;94852.75;;;23.12;71.98
21828;BME280;11076;47.942;11.804;2022-07-21T07:32:57;94849.56;;;23.00;72.78
21828;BME280;11076;47.942;11.804;2022-07-21T07:37:59;94854.09;;;23.10;73.00
21828;BME280;11076;47.942;11.804;2022-07-21T07:43:02;94857.38;;;23.41;72.70
21828;BME280;11076;47.942;11.804;2022-07-21T07:48:08;94851.97;;;23.36;72.53
21828;BME280;11076;47.942;11.804;2022-07-21T07:53:10;94857.66;;;23.10;73.31
21828;BME280;11076;47.942;11.804;2022-07-21T07:58:13;94862.34;;;22.99;74.31
21828;BME280;11076;47.942;11.804;2022-07-21T08:03:15;94868.31;;;22.72;74.93
21828;BME280;11076;47.942;11.804;2022-07-21T08:08:18;94870.63;;;22.50;75.63
21828;BME280;11076;47.942;11.804;2022-07-21T08:13:21;94878.31;;;22.37;76.55
21828;BME280;11076;47.942;11.804;2022-07-21T08:18:23;94868.72;;;22.50;76.34
21828;BME280;11076;47.942;11.804;2022-07-21T08:23:26;94867.88;;;22.55;75.93
21828;BME280;11076;47.942;11.804;2022-07-21T08:28:28;94869.38;;;22.76;74.94
21828;BME280;11076;47.942;11.804;2022-07-21T08:33:31;94873.97;;;23.15;74.49
21828;BME280;11076;47.942;11.804;2022-07-21T08:38:33;94873.28;;;23.34;72.69
21828;BME280;11076;47.942;11.804;2022-07-21T08:43:36;94883.66;;;23.32;72.58
21828;BME280;11076;47.942;11.804;2022-07-21T08:48:39;94876.56;;;23.60;71.75
21828;BME280;11076;47.942;11.804;2022-07-21T08:53:46;94877.38;;;24.09;69.57
21828;BME280;11076;47.942;11.804;2022-07-21T08:58:48;94873.34;;;24.68;66.25
21828;BME280;11076;47.942;11.804;2022-07-21T09:03:51;94878.34;;;24.61;66.03
21828;BME280;11076;47.942;11.804;2022-07-21T09:08:54;94886.03;;;24.59;65.61
21828;BME280;11076;47.942;11.804;2022-07-21T09:14:12;94880.69;;;25.06;64.67
21828;BME280;11076;47.942;11.804;2022-07-21T09:19:24;94877.16;;;25.05;64.98
21828;BME280;11076;47.942;11.804;2022-07-21T09:24:29;94877.75;;;24.64;65.14
21828;BME280;11076;47.942;11.804;2022-07-21T09:34:40;94890.59;;;23.48;68.21
21828;BME280;11076;47.942;11.804;2022-07-21T09:44:58;94892.25;;;23.15;70.08
21828;BME280;11076;47.942;11.804;2022-07-21T09:50:02;94895.31;;;23.08;70.85
21828;BME280;11076;47.942;11.804;2022-07-21T09:55:25;94898.09;;;23.32;71.71
21828;BME280;11076;47.942;11.804;2022-07-21T10:00:27;94911.41;;;22.65;76.20
21828;BME280;11076;47.942;11.804;2022-07-21T10:05:30;94903.31;;;22.50;78.08
21828;BME280;11076;47.942;11.804;2022-07-21T10:10:33;94907.22;;;22.28;79.92
21828;BME280;11076;47.942;11.804;2022-07-21T10:15:53;94912.69;;;22.18;81.27
21828;BME280;11076;47.942;11.804;2022-07-21T10:21:01;94907.34;;;21.97;82.26
21828;BME280;11076;47.942;11.804;2022-07-21T10:26:05;94912.78;;;21.92;83.05
21828;BME280;11076;47.942;11.804;2022-07-21T10:31:23;94912.06;;;21.71;84.27
21828;BME280;11076;47.942;11.804;2022-07-21T10:41:41;94934.91;;;21.70;85.59
21828;BME280;11076;47.942;11.804;2022-07-21T10:57:42;94927.03;;;21.38;89.50
21828;BME280;11076;47.942;11.804;2022-07-21T11:03:12;94927.06;;;21.53;88.58
21828;BME280;11076;47.942;11.804;2022-07-21T11:08:18;94933.00;;;21.65;88.32
21828;BME280;11076;47.942;11.804;2022-07-21T11:13:23;94931.97;;;21.51;89.59
21828;BME280;11076;47.942;11.804;2022-07-21T11:18:31;94927.59;;;21.35;89.47
21828;BME280;11076;47.942;11.804;2022-07-21T11:23:38;94923.81;;;21.51;88.84
21828;BME280;11076;47.942;11.804;2022-07-21T11:28:42;94912.91;;;21.36;88.97
21828;BME280;11076;47.942;11.804;2022-07-21T11:33:47;94913.97;;;21.65;89.24
21828;BME280;11076;47.942;11.804;2022-07-21T11:44:06;94914.09;;;22.15;86.59
21828;BME280;11076;47.942;11.804;2022-07-21T11:49:09;94917.06;;;22.14;86.58
21828;BME280;11076;47.942;11.804;2022-07-21T11:54:23;94914.13;;;22.05;84.90
21828;BME280;11076;47.942;11.804;2022-07-21T11:59:27;94904.41;;;22.49;83.67
21828;BME280;11076;47.942;11.804;2022-07-21T12:09:45;94898.38;;;23.31;78.71
21828;BME280;11076;47.942;11.804;2022-07-21T12:14:52;94900.19;;;23.70;76.36
21828;BME280;11076;47.942;11.804;2022-07-21T12:19:56;94895.72;;;24.51;74.72
21828;BME280;11076;47.942;11.804;2022-07-21T12:24:58;94881.16;;;25.59;71.05
21828;BME280;11076;47.942;11.804;2022-07-21T12:30:01;94880.56;;;25.63;69.94
21828;BME280;11076;47.942;11.804;2022-07-21T12:35:04;94881.22;;;24.89;71.63
21828;BME280;11076;47.942;11.804;2022-07-21T12:40:18;94891.56;;;24.73;71.43
21828;BME280;11076;47.942;11.804;2022-07-21T12:45:22;94879.03;;;24.72;71.41
21828;BME280;11076;47.942;11.804;2022-07-21T12:50:25;94880.28;;;24.79;70.21
21828;BME280;11076;47.942;11.804;2022-07-21T12:55:27;94883.00;;;24.60;71.38
21828;BME280;11076;47.942;11.804;2022-07-21T13:00:30;94876.72;;;24.60;70.68
21828;BME280;11076;47.942;11.804;2022-07-21T13:05:32;94878.38;;;24.37;70.43
21828;BME280;11076;47.942;11.804;2022-07-21T13:10:35;94878.38;;;24.18;71.55
21828;BME280;11076;47.942;11.804;2022-07-21T13:15:37;94875.47;;;24.52;70.52
21828;BME280;11076;47.942;11.804;2022-07-21T13:20:39;94879.22;;;24.37;71.13
21828;BME280;11076;47.942;11.804;2022-07-21T13:25:42;94872.69;;;24.57;70.03
21828;BME280;11076;47.942;11.804;2022-07-21T13:30:45;94876.50;;;24.56;69.37
21828;BME280;11076;47.942;11.804;2022-07-21T13:35:48;94870.94;;;24.42;68.97
21828;BME280;11076;47.942;11.804;2022-07-21T13:40:51;94871.34;;;24.12;69.95
21828;BME280;11076;47.942;11.804;2022-07-21T13:46:13;94876.97;;;24.20;70.13
21828;BME280;11076;47.942;11.804;2022-07-21T13:51:17;94877.03;;;24.15;70.35
21828;BME280;11076;47.942;11.804;2022-07-21T13:56:22;94883.88;;;24.13;70.43
21828;BME280;11076;47.942;11.804;2022-07-21T14:01:24;94878.44;;;24.13;70.01
21828;BME280;11076;47.942;11.804;2022-07-21T14:06:27;94874.94;;;24.07;69.90
21828;BME280;11076;47.942;11.804;2022-07-21T14:11:30;94872.06;;;23.98;70.16
21828;BME280;11076;47.942;11.804;2022-07-21T14:16:33;94876.00;;;23.87;70.86
21828;BME280;11076;47.942;11.804;2022-07-21T14:21:35;94876.47;;;23.94;69.99
21828;BME280;11076;47.942;11.804;2022-07-21T14:26:38;94869.56;;;23.78;70.35
21828;BME280;11076;47.942;11.804;2022-07-21T14:31:40;94864.97;;;23.97;70.04
21828;BME280;11076;47.942;11.804;2022-07-21T14:36:43;94864.00;;;24.07;69.77
21828;BME280;11076;47.942;11.804;2022-07-21T14:41:46;94858.13;;;24.19;69.44
21828;BME280;11076;47.942;11.804;2022-07-21T14:46:48;94864.13;;;24.21;69.31
21828;BME280;11076;47.942;11.804;2022-07-21T14:51:51;94861.78;;;24.33;68.76
21828;BME280;11076;47.942;11.804;2022-07-21T14:56:53;94861.19;;;24.36;68.62
21828;BME280;11076;47.942;11.804;2022-07-21T15:02:11;94841.19;;;24.79;66.64
21828;BME280;11076;47.942;11.804;2022-07-21T15:07:18;94842.28;;;24.97;66.26
21828;BME280;11076;47.942;11.804;2022-07-21T15:12:21;94839.53;;;25.30;65.72
21828;BME280;11076;47.942;11.804;2022-07-21T15:17:24;94837.25;;;25.51;65.45
21828;BME280;11076;47.942;11.804;2022-07-21T15:22:28;94832.50;;;25.84;63.80
21828;BME280;11076;47.942;11.804;2022-07-21T15:27:32;94828.44;;;25.68;64.41
21828;BME280;11076;47.942;11.804;2022-07-21T15:32:34;94821.03;;;25.54;63.64
21828;BME280;11076;47.942;11.804;2022-07-21T15:37:37;94828.22;;;25.50;63.44
21828;BME280;11076;47.942;11.804;2022-07-21T15:42:40;94820.63;;;25.47;63.71
21828;BME280;11076;47.942;11.804;2022-07-21T15:47:44;94821.59;;;25.24;64.65
21828;BME280;11076;47.942;11.804;2022-07-21T15:52:46;94809.66;;;25.00;64.99
21828;BME280;11076;47.942;11.804;2022-07-21T15:57:49;94806.22;;;24.95;65.19
21828;BME280;11076;47.942;11.804;2022-07-21T16:02:52;94807.34;;;24.75;65.36
21828;BME280;11076;47.942;11.804;2022-07-21T16:07:55;94802.06;;;24.97;64.89
21828;BME280;11076;47.942;11.804;2022-07-21T16:13:00;94801.59;;;25.09;65.01
21828;BME280;11076;47.942;11.804;2022-07-21T16:18:02;94803.66;;;24.98;65.05
21828;BME280;11076;47.942;11.804;2022-07-21T16:23:05;94801.44;;;25.33;64.75
21828;BME280;11076;47.942;11.804;2022-07-21T16:28:07;94801.25;;;25.30;64.88
21828;BME280;11076;47.942;11.804;2022-07-21T16:33:10;94798.03;;;25.83;63.36
21828;BME280;11076;47.942;11.804;2022-07-21T16:38:13;94794.56;;;25.50;64.34
21828;BME280;11076;47.942;11.804;2022-07-21T16:43:15;94793.72;;;25.22;64.78
21828;BME280;11076;47.942;11.804;2022-07-21T16:48:18;94784.31;;;25.28;64.76
21828;BME280;11076;47.942;11.804;2022-07-21T16:53:20;94781.59;;;25.28;64.53
21828;BME280;11076;47.942;11.804;2022-07-21T16:58:22;94774.69;;;25.44;64.55
21828;BME280;11076;47.942;11.804;2022-07-21T17:03:25;94771.66;;;25.46;64.12
21828;BME280;11076;47.942;11.804;2022-07-21T17:08:27;94774.88;;;25.34;64.21
21828;BME280;11076;47.942;11.804;2022-07-21T17:13:30;94782.00;;;25.02;64.70
21828;BME280;11076;47.942;11.804;2022-07-21T17:18:32;94783.28;;;25.24;63.95
21828;BME280;11076;47.942;11.804;2022-07-21T17:23:36;94777.22;;;25.27;64.04
21828;BME280;11076;47.942;11.804;2022-07-21T17:28:39;94772.81;;;25.12;64.08
21828;BME280;11076;47.942;11.804;2022-07-21T17:33:41;94776.13;;;24.62;65.54
21828;BME280;11076;47.942;11.804;2022-07-21T17:38:44;94769.47;;;24.68;65.72
21828;BME280;11076;47.942;11.804;2022-07-21T17:43:46;94778.03;;;24.05;67.66
21828;BME280;11076;47.942;11.804;2022-07-21T17:48:48;94781.66;;;23.76;68.72
21828;BME280;11076;47.942;11.804;2022-07-21T17:53:51;94775.41;;;23.51;69.73
21828;BME280;11076;47.942;11.804;2022-07-21T17:58:53;94774.88;;;23.25;70.86
21828;BME280;11076;47.942;11.804;2022-07-21T18:03:56;94782.75;;;23.32;71.01
21828;BME280;11076;47.942;11.804;2022-07-21T18:09:00;94778.81;;;22.84;73.19
21828;BME280;11076;47.942;11.804;2022-07-21T18:14:02;94775.81;;;23.15;72.90
21828;BME280;11076;47.942;11.804;2022-07-21T18:19:04;94775.41;;;23.51;72.23
21828;BME280;11076;47.942;11.804;2022-07-21T18:24:07;94775.28;;;23.61;72.40
21828;BME280;11076;47.942;11.804;2022-07-21T18:29:13;94769.94;;;23.51;72.85
21828;BME280;11076;47.942;11.804;2022-07-21T18:34:16;94773.94;;;23.11;74.20
21828;BME280;11076;47.942;11.804;2022-07-21T18:39:18;94776.06;;;22.55;76.50
21828;BME280;11076;47.942;11.804;2022-07-21T18:44:22;94777.63;;;22.22;77.74
21828;BME280;11076;47.942;11.804;2022-07-21T18:49:25;94776.94;;;22.01;78.94
21828;BME280;11076;47.942;11.804;2022-07-21T18:54:27;94772.97;;;21.78;80.47
21828;BME280;11076;47.942;11.804;2022-07-21T18:59:30;94782.38;;;21.46;81.80
21828;BME280;11076;47.942;11.804;2022-07-21T19:04:32;94772.09;;;21.12;83.41
21828;BME280;11076;47.942;11.804;2022-07-21T19:09:36;94774.34;;;20.79;85.18
21828;BME280;11076;47.942;11.804;2022-07-21T19:14:39;94781.41;;;20.50;86.78
21828;BME280;11076;47.942;11.804;2022-07-21T19:19:41;94786.25;;;20.22;88.29
21828;BME280;11076;47.942;11.804;2022-07-21T19:24:45;94788.13;;;19.96;90.07
21828;BME280;11076;47.942;11.804;2022-07-21T19:29:48;94789.44;;;19.78;91.60
21828;BME280;11076;47.942;11.804;2022-07-21T19:34:50;94790.69;;;19.65;93.08
21828;BME280;11076;47.942;11.804;2022-07-21T19:39:53;94801.22;;;19.46;94.64
21828;BME280;11076;47.942;11.804;2022-07-21T19:44:56;94805.19;;;19.28;97.04
21828;BME280;11076;47.942;11.804;2022-07-21T19:49:58;94790.19;;;19.15;98.70
21828;BME280;11076;47.942;11.804;2022-07-21T19:55:02;94804.78;;;19.04;98.60
21828;BME280;11076;47.942;11.804;2022-07-21T20:00:08;94796.56;;;18.88;99.50
21828;BME280;11076;47.942;11.804;2022-07-21T20:05:11;94804.03;;;18.76;100.00
21828;BME280;11076;47.942;11.804;2022-07-21T20:10:13;94803.34;;;18.59;100.00
21828;BME280;11076;47.942;11.804;2022-07-21T20:15:16;94810.28;;;18.44;100.00
21828;BME280;11076;47.942;11.804;2022-07-21T20:20:18;94814.94;;;18.22;100.00
21828;BME280;11076;47.942;11.804;2022-07-21T20:25:21;94806.06;;;17.99;100.00
21828;BME280;11076;47.942;11.804;2022-07-21T20:30:24;94808.69;;;17.94;100.00
21828;BME280;11076;47.942;11.804;2022-07-21T20:35:26;94814.63;;;17.91;100.00
21828;BME280;11076;47.942;11.804;2022-07-21T20:40:29;94811.22;;;17.79;100.00
21828;BME280;11076;47.942;11.804;2022-07-21T20:45:40;94811.72;;;17.76;100.00
21828;BME280;11076;47.942;11.804;2022-07-21T20:50:44;94807.09;;;17.71;100.00
21828;BME280;11076;47.942;11.804;2022-07-21T20:55:46;94806.69;;;17.62;100.00
21828;BME280;11076;47.942;11.804;2022-07-21T21:00:54;94808.78;;;17.55;100.00
21828;BME280;11076;47.942;11.804;2022-07-21T21:05:56;94806.25;;;17.48;100.00
21828;BME280;11076;47.942;11.804;2022-07-21T21:10:59;94818.91;;;17.43;100.00
21828;BME280;11076;47.942;11.804;2022-07-21T21:16:02;94820.22;;;17.40;100.00
21828;BME280;11076;47.942;11.804;2022-07-21T21:21:04;94819.91;;;17.37;100.00
21828;BME280;11076;47.942;11.804;2022-07-21T21:26:07;94807.38;;;17.30;100.00
21828;BME280;11076;47.942;11.804;2022-07-21T21:31:09;94807.81;;;17.22;100.00
21828;BME280;11076;47.942;11.804;2022-07-21T21:36:12;94807.00;;;17.22;100.00
21828;BME280;11076;47.942;11.804;2022-07-21T21:41:14;94803.94;;;17.13;100.00
21828;BME280;11076;47.942;11.804;2022-07-21T21:46:17;94799.22;;;17.03;100.00
21828;BME280;11076;47.942;11.804;2022-07-21T21:51:19;94800.69;;;16.94;100.00
21828;BME280;11076;47.942;11.804;2022-07-21T21:56:22;94802.16;;;16.85;100.00
21828;BME280;11076;47.942;11.804;2022-07-21T22:01:24;94801.50;;;16.78;100.00
21828;BME280;11076;47.942;11.804;2022-07-21T22:06:27;94809.75;;;16.71;100.00
21828;BME280;11076;47.942;11.804;2022-07-21T22:11:29;94803.78;;;16.69;100.00
21828;BME280;11076;47.942;11.804;2022-07-21T22:16:32;94799.72;;;16.66;100.00
21828;BME280;11076;47.942;11.804;2022-07-21T22:21:34;94803.50;;;16.65;100.00
21828;BME280;11076;47.942;11.804;2022-07-21T22:26:37;94796.69;;;16.63;100.00
21828;BME280;11076;47.942;11.804;2022-07-21T22:31:39;94789.56;;;16.57;100.00
21828;BME280;11076;47.942;11.804;2022-07-21T22:36:42;94799.81;;;16.55;100.00
21828;BME280;11076;47.942;11.804;2022-07-21T22:41:44;94795.38;;;16.48;100.00
21828;BME280;11076;47.942;11.804;2022-07-21T22:46:47;94788.59;;;16.46;100.00
21828;BME280;11076;47.942;11.804;2022-07-21T22:51:49;94786.06;;;16.39;100.00
21828;BME280;11076;47.942;11.804;2022-07-21T22:56:52;94788.44;;;16.36;100.00
21828;BME280;11076;47.942;11.804;2022-07-21T23:01:54;94780.84;;;16.33;100.00
21828;BME280;11076;47.942;11.804;2022-07-21T23:06:57;94784.03;;;16.29;100.00
21828;BME280;11076;47.942;11.804;2022-07-21T23:11:59;94784.19;;;16.23;100.00
21828;BME280;11076;47.942;11.804;2022-07-21T23:17:02;94783.25;;;16.17;100.00
21828;BME280;11076;47.942;11.804;2022-07-21T23:22:04;94776.50;;;16.15;100.00
21828;BME280;11076;47.942;11.804;2022-07-21T23:27:07;94777.00;;;16.12;100.00
21828;BME280;11076;47.942;11.804;2022-07-21T23:32:09;94778.28;;;16.09;100.00
21828;BME280;11076;47.942;11.804;2022-07-21T23:37:11;94780.16;;;16.08;100.00
21828;BME280;11076;47.942;11.804;2022-07-21T23:42:14;94771.59;;;16.12;100.00
21828;BME280;11076;47.942;11.804;2022-07-21T23:47:16;94773.78;;;16.15;100.00
21828;BME280;11076;47.942;11.804;2022-07-21T23:52:19;94769.94;;;16.10;100.00
21828;BME280;11076;47.942;11.804;2022-07-21T23:57:21;94763.06;;;16.03;100.00
